地図

経路データ

SID SEASON NUMBER BASIN SUBBASIN NAME ISO_TIME NATURE LAT LON WMO_WIND WMO_PRES WMO_AGENCY TRACK_TYPE DIST2LAND LANDFALL IFLAG USA_AGENCY USA_ATCF_ID USA_LAT USA_LON USA_RECORD USA_STATUS USA_WIND USA_PRES USA_SSHS USA_R34_NE USA_R34_SE USA_R34_SW USA_R34_NW USA_R50_NE USA_R50_SE USA_R50_SW USA_R50_NW USA_R64_NE USA_R64_SE USA_R64_SW USA_R64_NW USA_POCI USA_ROCI USA_RMW USA_EYE TOKYO_LAT TOKYO_LON TOKYO_GRADE TOKYO_WIND TOKYO_PRES TOKYO_R50_DIR TOKYO_R50_LONG TOKYO_R50_SHORT TOKYO_R30_DIR TOKYO_R30_LONG TOKYO_R30_SHORT TOKYO_LAND CMA_LAT CMA_LON CMA_CAT CMA_WIND CMA_PRES HKO_LAT HKO_LON HKO_CAT HKO_WIND HKO_PRES NEWDELHI_LAT NEWDELHI_LON NEWDELHI_GRADE NEWDELHI_WIND NEWDELHI_PRES NEWDELHI_CI NEWDELHI_DP NEWDELHI_POCI REUNION_LAT REUNION_LON REUNION_TYPE REUNION_WIND REUNION_PRES REUNION_TNUM REUNION_CI REUNION_RMW REUNION_R34_NE REUNION_R34_SE REUNION_R34_SW REUNION_R34_NW REUNION_R50_NE REUNION_R50_SE REUNION_R50_SW REUNION_R50_NW REUNION_R64_NE REUNION_R64_SE REUNION_R64_SW REUNION_R64_NW BOM_LAT BOM_LON BOM_TYPE BOM_WIND BOM_PRES BOM_TNUM BOM_CI BOM_RMW BOM_R34_NE BOM_R34_SE BOM_R34_SW BOM_R34_NW BOM_R50_NE BOM_R50_SE BOM_R50_SW BOM_R50_NW BOM_R64_NE BOM_R64_SE BOM_R64_SW BOM_R64_NW BOM_ROCI BOM_POCI BOM_EYE BOM_POS_METHOD BOM_PRES_METHOD NADI_LAT NADI_LON NADI_CAT NADI_WIND NADI_PRES WELLINGTON_LAT WELLINGTON_LON WELLINGTON_WIND WELLINGTON_PRES DS824_LAT DS824_LON DS824_STAGE DS824_WIND DS824_PRES TD9636_LAT TD9636_LON TD9636_STAGE TD9636_WIND TD9636_PRES TD9635_LAT TD9635_LON TD9635_WIND TD9635_PRES TD9635_ROCI NEUMANN_LAT NEUMANN_LON NEUMANN_CLASS NEUMANN_WIND NEUMANN_PRES MLC_LAT MLC_LON MLC_CLASS MLC_WIND MLC_PRES USA_GUST BOM_GUST BOM_GUST_PER REUNION_GUST REUNION_GUST_PER USA_SEAHGT USA_SEARAD_NE USA_SEARAD_SE USA_SEARAD_SW USA_SEARAD_NW STORM_SPEED STORM_DIR
1968170N24280 1968 34 NA NA BRENDA 1968-06-17 12:00:00 TS 24.0000 -80.5000 25 atcf main 111 101 O_____________ atcf AL021968 24.0000 -80.5000 TD 25 -1 6 330
1968170N24280 1968 34 NA NA BRENDA 1968-06-17 15:00:00 TS 24.2500 -80.6574 main 89 67 P_____________ AL021968 24.2449 -80.6176 TD 25 -1 6 331
1968170N24280 1968 34 NA NA BRENDA 1968-06-17 18:00:00 TS 24.5000 -80.8000 25 1012 atcf main 67 49 O_____________ atcf AL021968 24.5000 -80.8000 TD 25 1012 -1 6 335
1968170N24280 1968 34 NA NA BRENDA 1968-06-17 21:00:00 TS 24.7500 -80.9150 main 49 11 P_____________ AL021968 24.7651 -81.0723 TD 25 -1 6 335
1968170N24280 1968 34 NA GM BRENDA 1968-06-18 00:00:00 TS 25.0000 -81.0600 25 hurdat_atl main 11 0 O_____________ hurdat_atl AL021968 25.0000 -81.3000 TD 25 -1 5 336
1968170N24280 1968 34 NA GM BRENDA 1968-06-18 03:00:00 TS 25.2142 -81.1384 main 0 0 P_____________ AL021968 25.1574 -81.3377 TD 25 -1 4 345
1968170N24280 1968 34 NA GM BRENDA 1968-06-18 06:00:00 TS 25.4143 -81.1857 25 hurdat_atl main 10 0 O_____________ hurdat_atl AL021968 25.3000 -81.3000 TD 25 -1 4 349
1968170N24280 1968 34 NA NA BRENDA 1968-06-18 09:00:00 TS 25.6175 -81.2250 main 0 0 P_____________ AL021968 25.4850 -81.3000 TD 25 -1 4 353
1968170N24280 1968 34 NA NA BRENDA 1968-06-18 12:00:00 TS 25.8500 -81.2500 25 hurdat_atl main 0 0 O_____________ hurdat_atl AL021968 25.7000 -81.3000 TD 25 -1 5 355
1968170N24280 1968 34 NA NA BRENDA 1968-06-18 15:00:00 TS 26.1000 -81.2787 main 0 0 P_____________ AL021968 25.9500 -81.3000 TD 25 -1 5 355
1968170N24280 1968 34 NA NA BRENDA 1968-06-18 18:00:00 TS 26.3500 -81.3000 25 hurdat_atl main 0 0 O_____________ hurdat_atl AL021968 26.2000 -81.3000 TD 25 -1 5 0
1968170N24280 1968 34 NA NA BRENDA 1968-06-18 21:00:00 TS 26.5750 -81.3038 main 0 0 P_____________ AL021968 26.4000 -81.3000 TD 25 -1 5 0
1968170N24280 1968 34 NA NA BRENDA 1968-06-19 00:00:00 TS 26.8000 -81.3000 25 hurdat_atl main 0 0 O_____________ hurdat_atl AL021968 26.6000 -81.3000 TD 25 -1 5 357
1968170N24280 1968 34 NA NA BRENDA 1968-06-19 03:00:00 TS 27.0425 -81.3074 main 0 0 P_____________ AL021968 26.8350 -81.3074 TD 25 -1 5 2
1968170N24280 1968 34 NA NA BRENDA 1968-06-19 06:00:00 TS 27.3000 -81.3000 25 hurdat_atl main 0 0 O_____________ hurdat_atl AL021968 27.1000 -81.3000 TD 25 -1 5 5
1968170N24280 1968 34 NA NA BRENDA 1968-06-19 09:00:00 TS 27.5563 -81.2575 main 0 0 P_____________ AL021968 27.3775 -81.2575 TD 27 -1 6 9
1968170N24280 1968 34 NA NA BRENDA 1968-06-19 12:00:00 TS 27.8500 -81.2000 30 hurdat_atl main 0 0 O_____________ hurdat_atl AL021968 27.7000 -81.2000 TD 30 -1 7 9
1968170N24280 1968 34 NA NA BRENDA 1968-06-19 15:00:00 TS 28.1988 -81.1463 main 0 0 P_____________ AL021968 28.0700 -81.1500 TD 32 -1 8 6
1968170N24280 1968 34 NA NA BRENDA 1968-06-19 18:00:00 TS 28.6000 -81.1000 35 1012 hurdat_atl main 0 0 O_____________ hurdat_atl AL021968 28.5000 -81.1000 TS 35 1012 0 9 3
1968170N24280 1968 34 NA NA BRENDA 1968-06-19 21:00:00 TS 29.0537 -81.0972 main 0 0 P_____________ AL021968 29.0000 -81.0648 TS 35 0 9 2
1968170N24280 1968 34 NA NA BRENDA 1968-06-20 00:00:00 TS 29.5000 -81.0500 35 hurdat_atl main 14 9 O_____________ hurdat_atl AL021968 29.5000 -81.0000 TS 35 0 8 11
1968170N24280 1968 34 NA NA BRENDA 1968-06-20 03:00:00 TS 29.8798 -80.9173 main 40 40 P_____________ AL021968 29.9372 -80.9097 TS 35 0 8 26
1968170N24280 1968 34 NA NA BRENDA 1968-06-20 06:00:00 TS 30.2000 -80.6500 35 hurdat_atl main 77 77 O_____________ hurdat_atl AL021968 30.3000 -80.7000 TS 35 0 9 44
1968170N24280 1968 34 NA NA BRENDA 1968-06-20 09:00:00 TS 30.4875 -80.2277 main 116 116 P_____________ AL021968 30.6025 -80.3103 TS 35 0 10 59
1968170N24280 1968 34 NA NA BRENDA 1968-06-20 12:00:00 TS 30.7000 -79.7000 35 hurdat_atl main 162 162 O_____________ hurdat_atl AL021968 30.8000 -79.8000 TS 35 0 10 70
1968170N24280 1968 34 NA NA BRENDA 1968-06-20 15:00:00 TS 30.8299 -79.1572 main 202 202 P_____________ AL021968 30.8800 -79.2570 TS 35 0 10 78
1968170N24280 1968 34 NA NA BRENDA 1968-06-20 18:00:00 TS 30.9000 -78.6000 35 1008 hurdat_atl main 231 231 O_____________ hurdat_atl AL021968 30.9000 -78.7000 TS 35 1008 0 9 81
1968170N24280 1968 34 NA NA BRENDA 1968-06-20 21:00:00 TS 30.9684 -78.0787 main 252 252 P_____________ AL021968 30.9570 -78.2075 TS 35 0 9 84
1968170N24280 1968 34 NA NA BRENDA 1968-06-21 00:00:00 TS 31.0000 -77.5500 35 hurdat_atl main 285 280 O_____________ hurdat_atl AL021968 31.0000 -77.7000 TS 35 0 9 89
1968170N24280 1968 34 NA NA BRENDA 1968-06-21 03:00:00 TS 30.9823 -76.9860 main 317 317 P_____________ AL021968 31.0073 -77.1224 TS 37 0 10 93
1968170N24280 1968 34 NA NA BRENDA 1968-06-21 06:00:00 TS 30.9500 -76.4000 40 hurdat_atl main 356 356 O_____________ hurdat_atl AL021968 31.0000 -76.5000 TS 40 0 10 92
1968170N24280 1968 34 NA NA BRENDA 1968-06-21 09:00:00 TS 30.9500 -75.7851 main 383 383 P_____________ AL021968 31.0002 -75.8275 TS 40 0 10 90
1968170N24280 1968 34 NA NA BRENDA 1968-06-21 12:00:00 TS 30.9500 -75.2000 40 1005 hurdat_atl main 416 425 O_____________ hurdat_atl AL021968 31.0000 -75.2000 TS 40 1005 0 9 92
1968170N24280 1968 34 NA NA BRENDA 1968-06-21 15:00:00 TS 30.9248 -74.6874 main 455 455 P_____________ AL021968 30.9997 -74.6975 TS 47 1000 0 8 94
1968170N24280 1968 34 NA NA BRENDA 1968-06-21 18:00:00 TS 30.9000 -74.2500 55 995 hurdat_atl main 474 474 O_____________ hurdat_atl AL021968 31.0000 -74.3000 TS 55 995 0 7 94
1968170N24280 1968 34 NA NA BRENDA 1968-06-21 21:00:00 TS 30.8811 -73.8699 main 488 488 P_____________ AL021968 30.9922 -73.9774 TS 55 0 6 90
1968170N24280 1968 34 NA NA BRENDA 1968-06-22 00:00:00 TS 30.9000 -73.5500 55 hurdat_atl main 507 502 O_____________ hurdat_atl AL021968 31.0000 -73.7000 TS 55 0 5 80
1968170N24280 1968 34 NA NA BRENDA 1968-06-22 03:00:00 TS 30.9699 -73.2599 main 509 509 P_____________ AL021968 31.0199 -73.3998 TS 55 0 5 67
1968170N24280 1968 34 NA NA BRENDA 1968-06-22 06:00:00 TS 31.1000 -73.0000 55 hurdat_atl main 517 512 O_____________ hurdat_atl AL021968 31.1000 -73.1000 TS 55 0 5 55
1968170N24280 1968 34 NA NA BRENDA 1968-06-22 09:00:00 TS 31.2699 -72.7573 main 512 510 P_____________ AL021968 31.2624 -72.7999 TS 55 0 6 47
1968170N24280 1968 34 NA NA BRENDA 1968-06-22 12:00:00 TS 31.5000 -72.5000 55 998 hurdat_atl main 515 513 O_____________ hurdat_atl AL021968 31.5000 -72.5000 TS 55 998 0 7 43
1968170N24280 1968 34 NA NA BRENDA 1968-06-22 15:00:00 TS 31.7850 -72.1863 main 513 512 P_____________ AL021968 31.7849 -72.2074 TS 57 997 0 8 43
1968170N24280 1968 34 NA NA BRENDA 1968-06-22 18:00:00 TS 32.1000 -71.8500 60 997 hurdat_atl main 520 512 O_____________ hurdat_atl AL021968 32.1000 -71.9000 TS 60 997 0 8 42
1968170N24280 1968 34 NA NA BRENDA 1968-06-22 21:00:00 TS 32.3696 -71.5577 main 515 515 P_____________ AL021968 32.3697 -71.5865 TS 60 997 0 8 42
1968170N24280 1968 34 NA NA BRENDA 1968-06-23 00:00:00 TS 32.7000 -71.2000 60 997 hurdat_atl main 524 523 O_____________ hurdat_atl AL021968 32.7000 -71.2000 TS 60 997 0 11 41
1968170N24280 1968 34 NA NA BRENDA 1968-06-23 03:00:00 TS 33.1733 -70.7247 main 525 525 P_____________ AL021968 33.1770 -70.7173 TS 60 996 0 14 43
1968170N24280 1968 34 NA NA BRENDA 1968-06-23 06:00:00 TS 33.7000 -70.1000 60 995 hurdat_atl main 544 544 O_____________ hurdat_atl AL021968 33.7000 -70.1000 TS 60 995 0 16 48
1968170N24280 1968 34 NA NA BRENDA 1968-06-23 09:00:00 TS 34.2161 -69.3319 main 590 590 P_____________ AL021968 34.1872 -69.3602 TS 62 993 0 17 55
1968170N24280 1968 34 NA NA BRENDA 1968-06-23 12:00:00 TS 34.6500 -68.4500 65 992 hurdat_atl main 654 654 O_____________ hurdat_atl AL021968 34.6000 -68.5000 HU 65 992 1 16 64
1968170N24280 1968 34 NA NA BRENDA 1968-06-23 15:00:00 TS 34.9188 -67.5722 main 721 721 P_____________ AL021968 34.8940 -67.6015 HU 65 991 1 16 73
1968170N24280 1968 34 NA NA BRENDA 1968-06-23 18:00:00 TS 35.1000 -66.6000 65 hurdat_atl main 791 791 I_____________ hurdat_atl AL021968 35.1000 -66.6000 HU 65 991 1 17 77
1968170N24280 1968 34 NA NA BRENDA 1968-06-23 21:00:00 TS 35.3081 -65.4992 main 812 812 P_____________ AL021968 35.2868 -65.4951 HU 67 991 1 19 79
1968170N24280 1968 34 NA NA BRENDA 1968-06-24 00:00:00 TS 35.4500 -64.3000 70 991 hurdat_atl main 848 848 O_____________ hurdat_atl AL021968 35.4000 -64.3000 HU 70 991 1 20 85
1968170N24280 1968 34 NA NA BRENDA 1968-06-24 03:00:00 TS 35.4679 -63.0635 main 910 910 P_____________ AL021968 35.4142 -63.0636 HU 70 990 1 20 90
1968170N24280 1968 34 NA NA BRENDA 1968-06-24 06:00:00 TS 35.4500 -61.8000 70 990 hurdat_atl main 939 939 O_____________ hurdat_atl AL021968 35.4000 -61.8000 HU 70 990 1 20 89
1968170N24280 1968 34 NA NA BRENDA 1968-06-24 09:00:00 TS 35.4870 -60.5649 main 976 976 P_____________ AL021968 35.4333 -60.5648 HU 70 990 1 20 87
1968170N24280 1968 34 NA NA BRENDA 1968-06-24 12:00:00 TS 35.5500 -59.3000 70 990 hurdat_atl main 1017 1021 O_____________ hurdat_atl AL021968 35.5000 -59.3000 HU 70 990 1 21 86
1968170N24280 1968 34 NA NA BRENDA 1968-06-24 15:00:00 TS 35.6242 -57.9577 main 1077 1077 P_____________ AL021968 35.5992 -57.9580 HU 67 991 1 22 86
1968170N24280 1968 34 NA NA BRENDA 1968-06-24 18:00:00 TS 35.7000 -56.6000 65 hurdat_atl main 1122 1122 I_____________ hurdat_atl AL021968 35.7000 -56.6000 HU 65 993 1 22 87
1968170N24280 1968 34 NA NA BRENDA 1968-06-24 21:00:00 TS 35.7299 -55.2836 main 1164 1164 P_____________ AL021968 35.7336 -55.2834 HU 62 995 0 21 87
1968170N24280 1968 34 NA NA BRENDA 1968-06-25 00:00:00 TS 35.8000 -54.0000 60 997 hurdat_atl main 1201 1179 O_____________ hurdat_atl AL021968 35.8000 -54.0000 TS 60 997 0 21 83
1968170N24280 1968 34 NA NA BRENDA 1968-06-25 03:00:00 TS 35.9646 -52.7461 main 1179 1163 P_____________ AL021968 35.9683 -52.7500 TS 60 996 0 21 79
1968170N24280 1968 34 NA NA BRENDA 1968-06-25 06:00:00 TS 36.2000 -51.5000 60 hurdat_atl main 1165 1148 I_____________ hurdat_atl AL021968 36.2000 -51.5000 TS 60 995 0 21 76
1968170N24280 1968 34 NA NA BRENDA 1968-06-25 09:00:00 TS 36.4659 -50.2397 main 1150 1144 P_____________ AL021968 36.4411 -50.2145 TS 60 994 0 21 75
1968170N24280 1968 34 NA NA BRENDA 1968-06-25 12:00:00 TS 36.7500 -48.9500 60 994 hurdat_atl main 1146 1146 O_____________ hurdat_atl AL021968 36.7000 -48.9000 TS 60 994 0 22 76
1968170N24280 1968 34 NA NA BRENDA 1968-06-25 15:00:00 TS 36.9987 -47.6138 main 1162 1162 P_____________ AL021968 36.9412 -47.5563 TS 57 0 22 77
1968170N24280 1968 34 NA NA BRENDA 1968-06-25 18:00:00 MX 37.2500 -46.2500 55 hurdat_atl main 1183 1183 O_____________ hurdat_atl AL021968 37.2000 -46.2000 EX 55 -4 22 77
1968170N24280 1968 34 NA NA BRENDA 1968-06-25 21:00:00 MX 37.5159 -44.8815 main 1219 1219 P_____________ AL021968 37.4907 -44.8567 EX 47 -4 22 76
1968170N24280 1968 34 NA NA BRENDA 1968-06-26 00:00:00 MX 37.8000 -43.5000 40 hurdat_atl main 1259 1259 O_____________ hurdat_atl AL021968 37.8000 -43.5000 EX 40 -4 23 75
1968170N24280 1968 34 NA NA BRENDA 1968-06-26 03:00:00 MX 38.0950 -42.0955 main 1308 1308 P_____________ AL021968 38.0989 -42.0990 EX 35 -4 23 75
1968170N24280 1968 34 NA NA BRENDA 1968-06-26 06:00:00 MX 38.4000 -40.7000 30 hurdat_atl main 1366 1366 O_____________ hurdat_atl AL021968 38.4000 -40.7000 EX 30 -4 22 74
1968170N24280 1968 34 NA NA BRENDA 1968-06-26 09:00:00 MX 38.7040 -39.3409 main 1429 1429 P_____________ AL021968 38.7027 -39.3397 EX 30 -4 22 74
1968170N24280 1968 34 NA NA BRENDA 1968-06-26 12:00:00 MX 39.0000 -38.0000 30 hurdat_atl main 1490 O_____________ hurdat_atl AL021968 39.0000 -38.0000 EX 30 -4 22 74

IBTrACS Databaseについて

本データベースは、米国NOAAが公開する1842年以降の世界の熱帯低気圧のベストトラックデータアーカイブInternational Best Track Archive for Climate Stewardship (IBTrACS)を、ウェブで閲覧しやすい形式に変換したものです。

最終更新日:2022-05-13